sensor_id;sensor_type;location;lat;lon;timestamp;temperature;humidity
24158;DHT22;12316;50.904;4.200;2022-09-01T00:02:23;19.80;93.10
24158;DHT22;12316;50.904;4.200;2022-09-01T00:04:52;19.90;93.00
24158;DHT22;12316;50.904;4.200;2022-09-01T00:07:21;19.80;93.10
24158;DHT22;12316;50.904;4.200;2022-09-01T00:09:46;19.70;93.10
24158;DHT22;12316;50.904;4.200;2022-09-01T00:12:12;19.70;93.20
24158;DHT22;12316;50.904;4.200;2022-09-01T00:14:39;19.70;93.20
24158;DHT22;12316;50.904;4.200;2022-09-01T00:17:08;19.70;93.10
24158;DHT22;12316;50.904;4.200;2022-09-01T00:19:34;19.70;93.10
24158;DHT22;12316;50.904;4.200;2022-09-01T00:22:02;19.70;93.00
24158;DHT22;12316;50.904;4.200;2022-09-01T00:24:28;19.70;93.20
24158;DHT22;12316;50.904;4.200;2022-09-01T00:26:54;19.60;93.20
24158;DHT22;12316;50.904;4.200;2022-09-01T00:29:21;19.50;93.20
24158;DHT22;12316;50.904;4.200;2022-09-01T00:31:47;19.50;93.40
24158;DHT22;12316;50.904;4.200;2022-09-01T00:34:14;19.50;93.30
24158;DHT22;12316;50.904;4.200;2022-09-01T00:36:39;19.50;93.20
24158;DHT22;12316;50.904;4.200;2022-09-01T00:39:06;19.50;93.10
24158;DHT22;12316;50.904;4.200;2022-09-01T00:41:35;19.40;93.30
24158;DHT22;12316;50.904;4.200;2022-09-01T00:44:05;19.40;93.30
24158;DHT22;12316;50.904;4.200;2022-09-01T00:46:35;19.30;93.30
24158;DHT22;12316;50.904;4.200;2022-09-01T00:49:14;19.30;93.40
24158;DHT22;12316;50.904;4.200;2022-09-01T00:51:43;19.30;93.30
24158;DHT22;12316;50.904;4.200;2022-09-01T00:54:13;19.30;93.30
24158;DHT22;12316;50.904;4.200;2022-09-01T00:56:40;19.20;93.40
24158;DHT22;12316;50.904;4.200;2022-09-01T00:59:07;19.20;93.40
24158;DHT22;12316;50.904;4.200;2022-09-01T01:01:34;19.20;93.30
24158;DHT22;12316;50.904;4.200;2022-09-01T01:04:05;19.20;93.30
24158;DHT22;12316;50.904;4.200;2022-09-01T01:06:31;19.10;93.40
24158;DHT22;12316;50.904;4.200;2022-09-01T01:08:59;19.00;93.40
24158;DHT22;12316;50.904;4.200;2022-09-01T01:11:30;18.90;93.50
24158;DHT22;12316;50.904;4.200;2022-09-01T01:14:15;18.90;93.50
24158;DHT22;12316;50.904;4.200;2022-09-01T01:16:46;18.90;93.40
24158;DHT22;12316;50.904;4.200;2022-09-01T01:19:22;18.90;93.30
24158;DHT22;12316;50.904;4.200;2022-09-01T01:22:13;18.90;93.20
24158;DHT22;12316;50.904;4.200;2022-09-01T01:25:00;18.90;93.20
24158;DHT22;12316;50.904;4.200;2022-09-01T01:27:31;18.90;93.20
24158;DHT22;12316;50.904;4.200;2022-09-01T01:30:02;18.80;93.30
24158;DHT22;12316;50.904;4.200;2022-09-01T01:32:28;18.70;93.40
24158;DHT22;12316;50.904;4.200;2022-09-01T01:34:54;18.60;93.50
24158;DHT22;12316;50.904;4.200;2022-09-01T01:37:21;18.60;93.60
24158;DHT22;12316;50.904;4.200;2022-09-01T01:39:50;18.60;93.70
24158;DHT22;12316;50.904;4.200;2022-09-01T01:42:17;18.60;93.70
24158;DHT22;12316;50.904;4.200;2022-09-01T01:44:43;18.60;93.70
24158;DHT22;12316;50.904;4.200;2022-09-01T01:47:11;18.70;93.50
24158;DHT22;12316;50.904;4.200;2022-09-01T01:49:38;18.80;93.30
24158;DHT22;12316;50.904;4.200;2022-09-01T01:52:09;18.80;93.30
24158;DHT22;12316;50.904;4.200;2022-09-01T01:54:36;18.80;92.90
24158;DHT22;12316;50.904;4.200;2022-09-01T01:57:03;18.80;93.00
24158;DHT22;12316;50.904;4.200;2022-09-01T01:59:29;18.90;93.00
24158;DHT22;12316;50.904;4.200;2022-09-01T02:01:55;18.80;93.10
24158;DHT22;12316;50.904;4.200;2022-09-01T02:04:21;18.80;93.00
24158;DHT22;12316;50.904;4.200;2022-09-01T02:06:48;18.70;93.10
24158;DHT22;12316;50.904;4.200;2022-09-01T02:09:18;18.70;93.20
24158;DHT22;12316;50.904;4.200;2022-09-01T02:11:44;18.70;93.10
24158;DHT22;12316;50.904;4.200;2022-09-01T02:14:10;18.70;93.10
24158;DHT22;12316;50.904;4.200;2022-09-01T02:16:38;18.70;93.00
24158;DHT22;12316;50.904;4.200;2022-09-01T02:19:05;18.70;92.90
24158;DHT22;12316;50.904;4.200;2022-09-01T02:21:33;18.60;92.90
24158;DHT22;12316;50.904;4.200;2022-09-01T02:24:02;18.60;93.30
24158;DHT22;12316;50.904;4.200;2022-09-01T02:26:33;18.70;92.80
24158;DHT22;12316;50.904;4.200;2022-09-01T02:29:02;18.70;92.70
24158;DHT22;12316;50.904;4.200;2022-09-01T02:31:31;18.70;92.60
24158;DHT22;12316;50.904;4.200;2022-09-01T02:34:01;18.80;92.50
24158;DHT22;12316;50.904;4.200;2022-09-01T02:36:28;18.90;92.30
24158;DHT22;12316;50.904;4.200;2022-09-01T02:38:57;18.90;92.20
24158;DHT22;12316;50.904;4.200;2022-09-01T02:41:22;18.80;92.20
24158;DHT22;12316;50.904;4.200;2022-09-01T02:43:53;18.80;92.10
24158;DHT22;12316;50.904;4.200;2022-09-01T02:46:18;18.80;92.30
24158;DHT22;12316;50.904;4.200;2022-09-01T02:48:48;18.80;92.20
24158;DHT22;12316;50.904;4.200;2022-09-01T02:51:18;18.90;92.20
24158;DHT22;12316;50.904;4.200;2022-09-01T02:53:45;18.90;91.80
24158;DHT22;12316;50.904;4.200;2022-09-01T02:56:16;19.00;91.80
24158;DHT22;12316;50.904;4.200;2022-09-01T02:58:45;19.00;91.80
24158;DHT22;12316;50.904;4.200;2022-09-01T03:03:44;19.00;91.70
24158;DHT22;12316;50.904;4.200;2022-09-01T03:06:10;18.90;91.60
24158;DHT22;12316;50.904;4.200;2022-09-01T03:08:37;18.90;91.70
24158;DHT22;12316;50.904;4.200;2022-09-01T03:11:04;18.80;91.70
24158;DHT22;12316;50.904;4.200;2022-09-01T03:13:32;18.70;92.20
24158;DHT22;12316;50.904;4.200;2022-09-01T03:15:58;18.50;92.10
24158;DHT22;12316;50.904;4.200;2022-09-01T03:18:24;18.50;92.10
24158;DHT22;12316;50.904;4.200;2022-09-01T03:20:50;18.50;92.20
24158;DHT22;12316;50.904;4.200;2022-09-01T03:23:17;18.50;92.10
24158;DHT22;12316;50.904;4.200;2022-09-01T03:25:44;18.50;92.20
24158;DHT22;12316;50.904;4.200;2022-09-01T03:28:14;18.40;92.10
24158;DHT22;12316;50.904;4.200;2022-09-01T03:30:49;18.40;92.20
24158;DHT22;12316;50.904;4.200;2022-09-01T03:33:17;18.40;92.20
24158;DHT22;12316;50.904;4.200;2022-09-01T03:35:43;18.30;92.30
24158;DHT22;12316;50.904;4.200;2022-09-01T03:38:10;18.30;92.30
24158;DHT22;12316;50.904;4.200;2022-09-01T03:40:37;18.30;92.20
24158;DHT22;12316;50.904;4.200;2022-09-01T03:43:08;18.30;92.20
24158;DHT22;12316;50.904;4.200;2022-09-01T03:45:39;18.30;92.20
24158;DHT22;12316;50.904;4.200;2022-09-01T03:48:06;18.30;92.20
24158;DHT22;12316;50.904;4.200;2022-09-01T03:50:39;18.30;92.30
24158;DHT22;12316;50.904;4.200;2022-09-01T03:53:15;18.10;92.50
24158;DHT22;12316;50.904;4.200;2022-09-01T03:55:43;18.10;92.50
24158;DHT22;12316;50.904;4.200;2022-09-01T03:58:11;18.00;92.60
24158;DHT22;12316;50.904;4.200;2022-09-01T04:00:41;17.90;92.70
24158;DHT22;12316;50.904;4.200;2022-09-01T04:03:10;17.90;92.80
24158;DHT22;12316;50.904;4.200;2022-09-01T04:05:37;17.80;92.80
24158;DHT22;12316;50.904;4.200;2022-09-01T04:08:06;17.80;92.90
24158;DHT22;12316;50.904;4.200;2022-09-01T04:10:36;17.80;92.90
24158;DHT22;12316;50.904;4.200;2022-09-01T04:13:25;17.70;92.90
24158;DHT22;12316;50.904;4.200;2022-09-01T04:15:51;17.80;92.90
24158;DHT22;12316;50.904;4.200;2022-09-01T04:18:18;17.80;92.80
24158;DHT22;12316;50.904;4.200;2022-09-01T04:20:49;17.70;92.90
24158;DHT22;12316;50.904;4.200;2022-09-01T04:23:30;17.70;92.90
24158;DHT22;12316;50.904;4.200;2022-09-01T04:26:06;17.60;93.00
24158;DHT22;12316;50.904;4.200;2022-09-01T04:28:45;17.50;93.10
24158;DHT22;12316;50.904;4.200;2022-09-01T04:31:16;17.50;93.20
24158;DHT22;12316;50.904;4.200;2022-09-01T04:33:45;17.50;93.30
24158;DHT22;12316;50.904;4.200;2022-09-01T04:38:50;17.30;93.50
24158;DHT22;12316;50.904;4.200;2022-09-01T04:41:19;17.30;93.60
24158;DHT22;12316;50.904;4.200;2022-09-01T04:43:47;17.20;93.60
24158;DHT22;12316;50.904;4.200;2022-09-01T04:46:14;17.20;93.60
24158;DHT22;12316;50.904;4.200;2022-09-01T04:48:41;17.20;93.70
24158;DHT22;12316;50.904;4.200;2022-09-01T04:51:10;17.10;93.80
24158;DHT22;12316;50.904;4.200;2022-09-01T04:53:37;17.10;93.80
24158;DHT22;12316;50.904;4.200;2022-09-01T04:56:06;17.10;93.90
24158;DHT22;12316;50.904;4.200;2022-09-01T04:58:32;17.00;94.00
24158;DHT22;12316;50.904;4.200;2022-09-01T05:00:58;17.00;94.20
24158;DHT22;12316;50.904;4.200;2022-09-01T05:03:25;16.90;94.20
24158;DHT22;12316;50.904;4.200;2022-09-01T05:05:51;16.90;94.20
24158;DHT22;12316;50.904;4.200;2022-09-01T05:08:20;16.80;94.30
24158;DHT22;12316;50.904;4.200;2022-09-01T05:10:49;16.90;94.40
24158;DHT22;12316;50.904;4.200;2022-09-01T05:13:17;16.80;94.40
24158;DHT22;12316;50.904;4.200;2022-09-01T05:15:45;16.70;94.50
24158;DHT22;12316;50.904;4.200;2022-09-01T05:18:19;16.70;94.70
24158;DHT22;12316;50.904;4.200;2022-09-01T05:20:50;16.60;94.80
24158;DHT22;12316;50.904;4.200;2022-09-01T05:23:17;16.60;94.90
24158;DHT22;12316;50.904;4.200;2022-09-01T05:25:49;16.60;95.10
24158;DHT22;12316;50.904;4.200;2022-09-01T05:28:20;16.60;95.20
24158;DHT22;12316;50.904;4.200;2022-09-01T05:30:49;16.60;95.20
24158;DHT22;12316;50.904;4.200;2022-09-01T05:33:18;16.60;95.30
24158;DHT22;12316;50.904;4.200;2022-09-01T05:35:53;16.60;95.30
24158;DHT22;12316;50.904;4.200;2022-09-01T05:38:21;16.60;95.30
24158;DHT22;12316;50.904;4.200;2022-09-01T05:41:00;16.60;95.30
24158;DHT22;12316;50.904;4.200;2022-09-01T05:43:29;16.70;95.40
24158;DHT22;12316;50.904;4.200;2022-09-01T05:45:56;16.70;95.20
24158;DHT22;12316;50.904;4.200;2022-09-01T05:48:23;16.80;95.20
24158;DHT22;12316;50.904;4.200;2022-09-01T05:50:50;16.80;95.10
24158;DHT22;12316;50.904;4.200;2022-09-01T05:53:18;16.90;95.10
24158;DHT22;12316;50.904;4.200;2022-09-01T05:55:46;17.10;95.10
24158;DHT22;12316;50.904;4.200;2022-09-01T05:58:15;17.20;95.10
24158;DHT22;12316;50.904;4.200;2022-09-01T06:00:45;17.20;95.00
24158;DHT22;12316;50.904;4.200;2022-09-01T06:03:14;17.40;94.70
24158;DHT22;12316;50.904;4.200;2022-09-01T06:05:42;17.50;94.40
24158;DHT22;12316;50.904;4.200;2022-09-01T06:08:11;17.60;94.40
24158;DHT22;12316;50.904;4.200;2022-09-01T06:10:39;17.70;94.30
24158;DHT22;12316;50.904;4.200;2022-09-01T06:13:06;17.90;94.10
24158;DHT22;12316;50.904;4.200;2022-09-01T06:15:33;18.00;94.00
24158;DHT22;12316;50.904;4.200;2022-09-01T06:17:58;18.10;93.80
24158;DHT22;12316;50.904;4.200;2022-09-01T06:20:25;18.10;93.80
24158;DHT22;12316;50.904;4.200;2022-09-01T06:22:50;18.10;93.70
24158;DHT22;12316;50.904;4.200;2022-09-01T06:25:20;18.10;93.70
24158;DHT22;12316;50.904;4.200;2022-09-01T06:27:46;18.20;93.70
24158;DHT22;12316;50.904;4.200;2022-09-01T06:30:16;18.20;93.60
24158;DHT22;12316;50.904;4.200;2022-09-01T06:32:45;18.10;93.80
24158;DHT22;12316;50.904;4.200;2022-09-01T06:35:14;18.10;94.00
24158;DHT22;12316;50.904;4.200;2022-09-01T06:37:41;18.10;94.10
24158;DHT22;12316;50.904;4.200;2022-09-01T06:40:11;18.00;94.20
24158;DHT22;12316;50.904;4.200;2022-09-01T06:42:46;18.10;94.40
24158;DHT22;12316;50.904;4.200;2022-09-01T06:45:16;18.20;94.40
24158;DHT22;12316;50.904;4.200;2022-09-01T06:47:44;18.30;94.30
24158;DHT22;12316;50.904;4.200;2022-09-01T06:50:13;18.30;94.30
24158;DHT22;12316;50.904;4.200;2022-09-01T06:52:43;18.30;94.50
24158;DHT22;12316;50.904;4.200;2022-09-01T06:55:13;18.40;94.60
24158;DHT22;12316;50.904;4.200;2022-09-01T06:57:40;18.40;94.70
24158;DHT22;12316;50.904;4.200;2022-09-01T07:00:14;18.50;94.50
24158;DHT22;12316;50.904;4.200;2022-09-01T07:02:46;18.60;94.70
24158;DHT22;12316;50.904;4.200;2022-09-01T07:05:13;18.70;94.60
24158;DHT22;12316;50.904;4.200;2022-09-01T07:07:48;18.80;94.40
24158;DHT22;12316;50.904;4.200;2022-09-01T07:10:16;18.90;94.60
24158;DHT22;12316;50.904;4.200;2022-09-01T07:12:51;18.80;94.60
24158;DHT22;12316;50.904;4.200;2022-09-01T07:15:17;18.70;94.60
24158;DHT22;12316;50.904;4.200;2022-09-01T07:17:52;18.80;94.90
24158;DHT22;12316;50.904;4.200;2022-09-01T07:20:20;18.90;94.80
24158;DHT22;12316;50.904;4.200;2022-09-01T07:22:47;19.00;94.70
24158;DHT22;12316;50.904;4.200;2022-09-01T07:25:13;19.10;94.70
24158;DHT22;12316;50.904;4.200;2022-09-01T07:27:42;19.30;94.70
24158;DHT22;12316;50.904;4.200;2022-09-01T07:30:18;19.30;94.30
24158;DHT22;12316;50.904;4.200;2022-09-01T07:32:46;19.30;94.40
24158;DHT22;12316;50.904;4.200;2022-09-01T07:35:16;19.40;94.80
24158;DHT22;12316;50.904;4.200;2022-09-01T07:37:43;19.40;94.60
24158;DHT22;12316;50.904;4.200;2022-09-01T07:40:14;19.50;94.40
24158;DHT22;12316;50.904;4.200;2022-09-01T07:42:44;19.70;94.50
24158;DHT22;12316;50.904;4.200;2022-09-01T07:45:12;19.80;94.30
24158;DHT22;12316;50.904;4.200;2022-09-01T07:47:40;19.90;94.20
24158;DHT22;12316;50.904;4.200;2022-09-01T07:50:08;20.00;94.10
24158;DHT22;12316;50.904;4.200;2022-09-01T07:52:38;20.00;93.80
24158;DHT22;12316;50.904;4.200;2022-09-01T07:55:13;20.00;94.10
24158;DHT22;12316;50.904;4.200;2022-09-01T07:57:41;20.10;94.00
24158;DHT22;12316;50.904;4.200;2022-09-01T08:00:14;20.20;93.90
24158;DHT22;12316;50.904;4.200;2022-09-01T08:02:41;20.30;93.70
24158;DHT22;12316;50.904;4.200;2022-09-01T08:05:12;20.30;93.70
24158;DHT22;12316;50.904;4.200;2022-09-01T08:07:38;20.30;93.60
24158;DHT22;12316;50.904;4.200;2022-09-01T08:10:06;20.40;93.70
24158;DHT22;12316;50.904;4.200;2022-09-01T08:12:33;20.50;93.80
24158;DHT22;12316;50.904;4.200;2022-09-01T08:15:00;20.60;93.30
24158;DHT22;12316;50.904;4.200;2022-09-01T08:17:26;20.70;93.50
24158;DHT22;12316;50.904;4.200;2022-09-01T08:19:52;20.80;93.30
24158;DHT22;12316;50.904;4.200;2022-09-01T08:22:17;20.90;93.20
24158;DHT22;12316;50.904;4.200;2022-09-01T08:24:47;21.00;93.30
24158;DHT22;12316;50.904;4.200;2022-09-01T08:27:13;21.10;93.20
24158;DHT22;12316;50.904;4.200;2022-09-01T08:29:39;21.30;92.80
24158;DHT22;12316;50.904;4.200;2022-09-01T08:32:04;21.50;92.80
24158;DHT22;12316;50.904;4.200;2022-09-01T08:34:32;21.50;92.60
24158;DHT22;12316;50.904;4.200;2022-09-01T08:36:57;21.60;92.50
24158;DHT22;12316;50.904;4.200;2022-09-01T08:39:24;21.60;92.40
24158;DHT22;12316;50.904;4.200;2022-09-01T08:44:45;21.50;92.40
24158;DHT22;12316;50.904;4.200;2022-09-01T08:47:17;21.50;92.90
24158;DHT22;12316;50.904;4.200;2022-09-01T08:49:44;21.70;92.50
24158;DHT22;12316;50.904;4.200;2022-09-01T08:52:32;21.80;92.60
24158;DHT22;12316;50.904;4.200;2022-09-01T08:57:36;22.30;91.90
24158;DHT22;12316;50.904;4.200;2022-09-01T09:00:10;22.40;91.40
24158;DHT22;12316;50.904;4.200;2022-09-01T09:05:32;22.40;91.10
24158;DHT22;12316;50.904;4.200;2022-09-01T09:11:07;22.60;91.00
24158;DHT22;12316;50.904;4.200;2022-09-01T09:16:29;22.90;90.70
24158;DHT22;12316;50.904;4.200;2022-09-01T09:19:00;23.10;90.80
24158;DHT22;12316;50.904;4.200;2022-09-01T09:21:39;23.20;90.20
24158;DHT22;12316;50.904;4.200;2022-09-01T09:24:10;23.10;90.10
24158;DHT22;12316;50.904;4.200;2022-09-01T09:26:37;23.20;90.10
24158;DHT22;12316;50.904;4.200;2022-09-01T09:29:03;23.20;90.20
24158;DHT22;12316;50.904;4.200;2022-09-01T09:31:32;23.40;89.50
24158;DHT22;12316;50.904;4.200;2022-09-01T09:33:58;23.50;89.50
24158;DHT22;12316;50.904;4.200;2022-09-01T09:36:30;23.60;88.70
24158;DHT22;12316;50.904;4.200;2022-09-01T09:39:16;23.70;89.20
24158;DHT22;12316;50.904;4.200;2022-09-01T09:41:42;23.70;89.80
24158;DHT22;12316;50.904;4.200;2022-09-01T09:44:24;23.90;88.70
24158;DHT22;12316;50.904;4.200;2022-09-01T09:46:50;24.00;88.60
24158;DHT22;12316;50.904;4.200;2022-09-01T09:49:31;24.20;87.20
24158;DHT22;12316;50.904;4.200;2022-09-01T09:52:16;24.00;86.90
24158;DHT22;12316;50.904;4.200;2022-09-01T09:57:29;24.30;86.40
24158;DHT22;12316;50.904;4.200;2022-09-01T09:59:59;24.30;86.50
24158;DHT22;12316;50.904;4.200;2022-09-01T10:02:34;24.50;86.70
24158;DHT22;12316;50.904;4.200;2022-09-01T10:07:46;24.60;85.50
24158;DHT22;12316;50.904;4.200;2022-09-01T10:10:28;24.60;85.00
24158;DHT22;12316;50.904;4.200;2022-09-01T10:12:55;24.60;83.30
24158;DHT22;12316;50.904;4.200;2022-09-01T10:15:27;24.60;84.00
24158;DHT22;12316;50.904;4.200;2022-09-01T10:17:59;24.60;83.80
24158;DHT22;12316;50.904;4.200;2022-09-01T10:20:26;24.80;83.80
24158;DHT22;12316;50.904;4.200;2022-09-01T10:22:52;25.00;83.40
24158;DHT22;12316;50.904;4.200;2022-09-01T10:25:25;25.00;83.70
24158;DHT22;12316;50.904;4.200;2022-09-01T10:28:01;25.00;83.10
24158;DHT22;12316;50.904;4.200;2022-09-01T10:30:28;25.00;82.80
24158;DHT22;12316;50.904;4.200;2022-09-01T10:32:57;25.20;82.00
24158;DHT22;12316;50.904;4.200;2022-09-01T10:35:28;25.20;81.10
24158;DHT22;12316;50.904;4.200;2022-09-01T10:37:56;25.30;81.40
24158;DHT22;12316;50.904;4.200;2022-09-01T10:42:55;25.20;80.90
24158;DHT22;12316;50.904;4.200;2022-09-01T10:45:32;25.40;79.50
24158;DHT22;12316;50.904;4.200;2022-09-01T10:51:08;25.50;76.10
24158;DHT22;12316;50.904;4.200;2022-09-01T11:04:08;25.70;72.30
24158;DHT22;12316;50.904;4.200;2022-09-01T11:09:28;25.90;71.80
24158;DHT22;12316;50.904;4.200;2022-09-01T11:15:34;25.90;71.70
24158;DHT22;12316;50.904;4.200;2022-09-01T11:18:00;25.90;72.30
24158;DHT22;12316;50.904;4.200;2022-09-01T11:23:01;25.90;72.10
24158;DHT22;12316;50.904;4.200;2022-09-01T11:31:09;26.20;70.60
24158;DHT22;12316;50.904;4.200;2022-09-01T11:33:48;26.30;71.00
24158;DHT22;12316;50.904;4.200;2022-09-01T11:44:55;26.40;69.50
24158;DHT22;12316;50.904;4.200;2022-09-01T11:47:06;26.50;69.40
24158;DHT22;12316;50.904;4.200;2022-09-01T11:49:38;26.50;69.90
24158;DHT22;12316;50.904;4.200;2022-09-01T11:52:04;26.40;69.20
24158;DHT22;12316;50.904;4.200;2022-09-01T11:54:39;26.30;69.40
24158;DHT22;12316;50.904;4.200;2022-09-01T11:57:26;26.30;69.00
24158;DHT22;12316;50.904;4.200;2022-09-01T11:59:54;26.30;68.80
24158;DHT22;12316;50.904;4.200;2022-09-01T12:02:26;26.30;68.30
24158;DHT22;12316;50.904;4.200;2022-09-01T12:04:54;26.60;69.40
24158;DHT22;12316;50.904;4.200;2022-09-01T12:07:39;26.60;68.10
24158;DHT22;12316;50.904;4.200;2022-09-01T12:10:31;26.70;68.00
24158;DHT22;12316;50.904;4.200;2022-09-01T12:13:09;26.60;67.50
24158;DHT22;12316;50.904;4.200;2022-09-01T12:15:39;26.50;68.20
24158;DHT22;12316;50.904;4.200;2022-09-01T12:18:30;26.70;68.10
24158;DHT22;12316;50.904;4.200;2022-09-01T12:21:00;26.90;67.30
24158;DHT22;12316;50.904;4.200;2022-09-01T12:23:31;26.90;67.10
24158;DHT22;12316;50.904;4.200;2022-09-01T12:26:05;26.90;67.70
24158;DHT22;12316;50.904;4.200;2022-09-01T12:28:33;27.00;67.10
24158;DHT22;12316;50.904;4.200;2022-09-01T12:31:02;27.00;67.20
24158;DHT22;12316;50.904;4.200;2022-09-01T12:33:30;27.20;66.60
24158;DHT22;12316;50.904;4.200;2022-09-01T12:36:26;27.20;66.70
24158;DHT22;12316;50.904;4.200;2022-09-01T12:38:54;27.20;65.60
24158;DHT22;12316;50.904;4.200;2022-09-01T12:41:31;27.00;66.10
24158;DHT22;12316;50.904;4.200;2022-09-01T12:44:53;27.10;66.30
24158;DHT22;12316;50.904;4.200;2022-09-01T12:49:58;27.20;65.80
24158;DHT22;12316;50.904;4.200;2022-09-01T12:52:25;27.30;65.70
24158;DHT22;12316;50.904;4.200;2022-09-01T13:00:14;27.20;66.60
24158;DHT22;12316;50.904;4.200;2022-09-01T13:05:18;27.00;66.40
24158;DHT22;12316;50.904;4.200;2022-09-01T13:07:44;27.10;66.20
24158;DHT22;12316;50.904;4.200;2022-09-01T13:10:09;27.10;66.50
24158;DHT22;12316;50.904;4.200;2022-09-01T13:12:39;27.20;66.80
24158;DHT22;12316;50.904;4.200;2022-09-01T13:15:07;27.10;67.10
24158;DHT22;12316;50.904;4.200;2022-09-01T13:17:33;27.00;66.80
24158;DHT22;12316;50.904;4.200;2022-09-01T13:19:59;27.00;67.30
24158;DHT22;12316;50.904;4.200;2022-09-01T13:22:24;26.80;67.20
24158;DHT22;12316;50.904;4.200;2022-09-01T13:24:51;26.90;67.60
24158;DHT22;12316;50.904;4.200;2022-09-01T13:27:17;27.00;66.50
24158;DHT22;12316;50.904;4.200;2022-09-01T13:29:42;27.00;67.10
24158;DHT22;12316;50.904;4.200;2022-09-01T13:32:09;27.00;66.80
24158;DHT22;12316;50.904;4.200;2022-09-01T13:34:35;27.10;66.30
24158;DHT22;12316;50.904;4.200;2022-09-01T13:37:00;27.40;66.30
24158;DHT22;12316;50.904;4.200;2022-09-01T13:39:26;27.60;66.10
24158;DHT22;12316;50.904;4.200;2022-09-01T13:41:51;27.60;65.70
24158;DHT22;12316;50.904;4.200;2022-09-01T13:44:17;27.60;64.80
24158;DHT22;12316;50.904;4.200;2022-09-01T13:46:44;27.40;65.30
24158;DHT22;12316;50.904;4.200;2022-09-01T13:49:11;27.40;66.40
24158;DHT22;12316;50.904;4.200;2022-09-01T13:51:38;27.50;66.30
24158;DHT22;12316;50.904;4.200;2022-09-01T13:54:04;27.40;64.60
24158;DHT22;12316;50.904;4.200;2022-09-01T13:56:30;27.30;65.00
24158;DHT22;12316;50.904;4.200;2022-09-01T13:58:56;27.10;65.40
24158;DHT22;12316;50.904;4.200;2022-09-01T14:01:21;27.10;65.40
24158;DHT22;12316;50.904;4.200;2022-09-01T14:03:47;27.30;66.10
24158;DHT22;12316;50.904;4.200;2022-09-01T14:06:14;27.30;65.90
24158;DHT22;12316;50.904;4.200;2022-09-01T14:08:40;27.40;66.00
24158;DHT22;12316;50.904;4.200;2022-09-01T14:11:07;27.50;65.20
24158;DHT22;12316;50.904;4.200;2022-09-01T14:13:34;27.50;65.50
24158;DHT22;12316;50.904;4.200;2022-09-01T14:16:00;27.40;65.10
24158;DHT22;12316;50.904;4.200;2022-09-01T14:18:26;27.40;65.10
24158;DHT22;12316;50.904;4.200;2022-09-01T14:20:57;27.50;65.10
24158;DHT22;12316;50.904;4.200;2022-09-01T14:23:25;27.50;63.90
24158;DHT22;12316;50.904;4.200;2022-09-01T14:25:51;27.50;63.50
24158;DHT22;12316;50.904;4.200;2022-09-01T14:28:18;27.50;63.10
24158;DHT22;12316;50.904;4.200;2022-09-01T14:30:44;27.50;63.60
24158;DHT22;12316;50.904;4.200;2022-09-01T14:33:11;27.70;63.20
24158;DHT22;12316;50.904;4.200;2022-09-01T14:35:42;27.70;63.50
24158;DHT22;12316;50.904;4.200;2022-09-01T14:38:09;27.60;63.40
24158;DHT22;12316;50.904;4.200;2022-09-01T14:40:37;27.50;64.10
24158;DHT22;12316;50.904;4.200;2022-09-01T14:43:05;27.50;63.50
24158;DHT22;12316;50.904;4.200;2022-09-01T14:45:32;27.50;63.60
24158;DHT22;12316;50.904;4.200;2022-09-01T14:47:59;27.50;63.20
24158;DHT22;12316;50.904;4.200;2022-09-01T14:50:26;27.50;63.20
24158;DHT22;12316;50.904;4.200;2022-09-01T14:52:55;27.50;63.80
24158;DHT22;12316;50.904;4.200;2022-09-01T14:55:25;27.50;63.40
24158;DHT22;12316;50.904;4.200;2022-09-01T14:57:52;27.40;63.20
24158;DHT22;12316;50.904;4.200;2022-09-01T15:00:22;27.50;62.90
24158;DHT22;12316;50.904;4.200;2022-09-01T15:02:49;27.50;62.50
24158;DHT22;12316;50.904;4.200;2022-09-01T15:05:15;27.40;62.80
24158;DHT22;12316;50.904;4.200;2022-09-01T15:07:42;27.40;63.60
24158;DHT22;12316;50.904;4.200;2022-09-01T15:10:09;27.50;63.00
24158;DHT22;12316;50.904;4.200;2022-09-01T15:12:36;27.50;63.00
24158;DHT22;12316;50.904;4.200;2022-09-01T15:15:05;27.50;62.30
24158;DHT22;12316;50.904;4.200;2022-09-01T15:17:31;27.40;61.80
24158;DHT22;12316;50.904;4.200;2022-09-01T15:19:57;27.30;63.00
24158;DHT22;12316;50.904;4.200;2022-09-01T15:22:46;27.30;61.90
24158;DHT22;12316;50.904;4.200;2022-09-01T15:25:14;27.40;62.90
24158;DHT22;12316;50.904;4.200;2022-09-01T15:27:40;27.40;61.70
24158;DHT22;12316;50.904;4.200;2022-09-01T15:30:06;27.40;61.20
24158;DHT22;12316;50.904;4.200;2022-09-01T15:32:40;27.30;61.50
24158;DHT22;12316;50.904;4.200;2022-09-01T15:35:07;27.20;61.60
24158;DHT22;12316;50.904;4.200;2022-09-01T15:37:33;27.20;61.80
24158;DHT22;12316;50.904;4.200;2022-09-01T15:39:59;27.20;62.00
24158;DHT22;12316;50.904;4.200;2022-09-01T15:42:24;27.20;61.60
24158;DHT22;12316;50.904;4.200;2022-09-01T15:44:51;27.20;60.70
24158;DHT22;12316;50.904;4.200;2022-09-01T15:47:17;27.10;60.80
24158;DHT22;12316;50.904;4.200;2022-09-01T15:49:43;27.30;60.80
24158;DHT22;12316;50.904;4.200;2022-09-01T15:52:09;27.30;60.80
24158;DHT22;12316;50.904;4.200;2022-09-01T15:54:38;27.30;59.80
24158;DHT22;12316;50.904;4.200;2022-09-01T15:57:04;27.40;59.20
24158;DHT22;12316;50.904;4.200;2022-09-01T15:59:30;27.40;59.40
24158;DHT22;12316;50.904;4.200;2022-09-01T16:01:57;27.40;60.00
24158;DHT22;12316;50.904;4.200;2022-09-01T16:04:24;27.30;59.50
24158;DHT22;12316;50.904;4.200;2022-09-01T16:06:50;27.30;60.20
24158;DHT22;12316;50.904;4.200;2022-09-01T16:09:17;27.40;60.20
24158;DHT22;12316;50.904;4.200;2022-09-01T16:11:45;27.40;59.50
24158;DHT22;12316;50.904;4.200;2022-09-01T16:14:11;27.30;58.90
24158;DHT22;12316;50.904;4.200;2022-09-01T16:19:31;27.10;58.60
24158;DHT22;12316;50.904;4.200;2022-09-01T16:22:47;27.00;58.70
24158;DHT22;12316;50.904;4.200;2022-09-01T16:24:55;26.90;58.80
24158;DHT22;12316;50.904;4.200;2022-09-01T16:27:37;26.90;58.70
24158;DHT22;12316;50.904;4.200;2022-09-01T16:30:09;26.90;58.90
24158;DHT22;12316;50.904;4.200;2022-09-01T16:32:38;26.90;59.00
24158;DHT22;12316;50.904;4.200;2022-09-01T16:35:05;26.80;59.40
24158;DHT22;12316;50.904;4.200;2022-09-01T16:40:51;26.60;59.80
24158;DHT22;12316;50.904;4.200;2022-09-01T16:43:40;26.60;60.00
24158;DHT22;12316;50.904;4.200;2022-09-01T16:57:18;26.50;60.10
24158;DHT22;12316;50.904;4.200;2022-09-01T17:02:34;26.40;60.10
24158;DHT22;12316;50.904;4.200;2022-09-01T17:05:20;26.30;60.30
24158;DHT22;12316;50.904;4.200;2022-09-01T17:07:51;26.30;60.30
24158;DHT22;12316;50.904;4.200;2022-09-01T17:13:11;26.20;60.30
24158;DHT22;12316;50.904;4.200;2022-09-01T17:15:43;26.20;60.70
24158;DHT22;12316;50.904;4.200;2022-09-01T17:27:00;26.00;61.20
24158;DHT22;12316;50.904;4.200;2022-09-01T17:32:08;25.90;61.10
24158;DHT22;12316;50.904;4.200;2022-09-01T17:34:59;26.00;61.30